createdAt,value
2019-06-26T00:01:19.275Z,10.97
2019-06-26T00:03:51.468Z,11.40
2019-06-26T00:06:23.851Z,13.97
2019-06-26T00:08:56.301Z,12.27
2019-06-26T00:11:29.157Z,12.23
2019-06-26T00:14:01.296Z,12.33
2019-06-26T00:16:33.168Z,10.37
2019-06-26T00:19:05.575Z,11.97
2019-06-26T00:21:37.506Z,9.83
2019-06-26T00:24:09.737Z,10.87
2019-06-26T00:26:42.287Z,11.53
2019-06-26T00:29:14.306Z,13.90
2019-06-26T00:31:46.755Z,14.57
2019-06-26T00:34:19.177Z,12.37
2019-06-26T00:36:51.296Z,11.93
2019-06-26T00:39:23.644Z,11.10
2019-06-26T00:41:55.952Z,10.67
2019-06-26T00:44:27.977Z,10.43
2019-06-26T00:47:00.092Z,10.90
2019-06-26T00:49:32.450Z,10.47
2019-06-26T00:52:04.781Z,10.83
2019-06-26T00:54:37.579Z,10.90
2019-06-26T00:57:09.660Z,10.60
2019-06-26T00:59:41.766Z,11.07
2019-06-26T01:02:14.279Z,10.93
2019-06-26T01:04:48.570Z,13.43
2019-06-26T01:07:20.689Z,10.83
2019-06-26T01:09:52.625Z,12.13
2019-06-26T01:12:24.719Z,11.63
2019-06-26T01:14:56.408Z,10.83
2019-06-26T01:17:28.196Z,9.93
2019-06-26T01:19:59.987Z,10.50
2019-06-26T01:22:31.950Z,10.60
2019-06-26T01:25:04.658Z,10.57
2019-06-26T01:27:37.036Z,10.83
2019-06-26T01:30:09.609Z,9.87
2019-06-26T01:32:42.217Z,11.00
2019-06-26T01:35:14.354Z,10.73
2019-06-26T01:37:46.726Z,10.03
2019-06-26T01:40:18.859Z,10.67
2019-06-26T01:42:50.934Z,11.63
2019-06-26T01:45:23.154Z,9.97
2019-06-26T01:47:55.607Z,11.17
2019-06-26T01:50:27.441Z,10.77
2019-06-26T01:52:59.734Z,12.43
2019-06-26T01:55:31.682Z,11.13
2019-06-26T01:58:03.530Z,10.57
2019-06-26T02:00:35.775Z,11.50
2019-06-26T02:03:07.721Z,12.90
2019-06-26T02:05:39.411Z,11.70
2019-06-26T02:08:11.177Z,10.67
2019-06-26T02:10:43.405Z,10.93
2019-06-26T02:13:15.444Z,10.67
2019-06-26T02:15:47.819Z,10.73
2019-06-26T02:18:42.024Z,11.60
2019-06-26T02:21:14.064Z,10.90
2019-06-26T02:23:46.332Z,13.33
2019-06-26T02:26:18.354Z,11.57
2019-06-26T02:28:50.514Z,12.07
2019-06-26T02:31:22.361Z,11.97
2019-06-26T02:33:55.317Z,11.57
2019-06-26T02:36:27.578Z,11.47
2019-06-26T02:39:00.037Z,12.60
2019-06-26T02:41:32.329Z,12.53
2019-06-26T02:44:04.554Z,14.27
2019-06-26T02:46:36.966Z,11.93
2019-06-26T02:49:09.173Z,12.63
2019-06-26T02:51:41.388Z,11.93
2019-06-26T02:54:13.763Z,12.30
2019-06-26T02:56:45.913Z,12.53
2019-06-26T02:59:18.486Z,14.17
2019-06-26T03:01:50.589Z,11.90
2019-06-26T03:04:22.571Z,12.63
2019-06-26T03:06:55.260Z,15.40
2019-06-26T03:09:27.682Z,13.20
2019-06-26T03:11:59.921Z,13.27
2019-06-26T03:14:32.283Z,12.40
2019-06-26T03:17:04.271Z,12.70
2019-06-26T03:19:36.188Z,13.53
2019-06-26T03:22:08.414Z,12.70
2019-06-26T03:24:41.117Z,15.33
2019-06-26T03:27:12.974Z,12.40
2019-06-26T03:29:45.485Z,16.27
2019-06-26T03:32:18.100Z,13.20
2019-06-26T03:34:50.094Z,13.20
2019-06-26T03:37:21.799Z,12.87
2019-06-26T03:39:53.534Z,13.87
2019-06-26T03:42:25.293Z,13.13
2019-06-26T03:44:57.017Z,13.77
2019-06-26T03:47:28.775Z,15.07
2019-06-26T03:50:00.485Z,12.97
2019-06-26T03:52:32.764Z,13.27
2019-06-26T03:55:04.977Z,13.77
2019-06-26T03:57:36.890Z,15.40
2019-06-26T04:00:08.875Z,13.13
2019-06-26T04:02:41.326Z,13.27
2019-06-26T04:05:13.758Z,14.30
2019-06-26T04:07:45.808Z,14.57
2019-06-26T04:10:17.653Z,14.73
2019-06-26T04:12:49.318Z,16.20
2019-06-26T04:15:21.311Z,16.33
2019-06-26T04:17:53.055Z,14.77
2019-06-26T04:20:25.305Z,18.27
2019-06-26T04:22:57.031Z,15.63
2019-06-26T04:25:28.703Z,16.53
2019-06-26T04:28:00.326Z,17.10
2019-06-26T04:30:32.639Z,16.87
2019-06-26T04:33:04.545Z,17.83
2019-06-26T04:35:36.438Z,18.03
2019-06-26T04:38:09.246Z,16.97
2019-06-26T04:40:41.319Z,17.20
2019-06-26T04:43:13.233Z,16.73
2019-06-26T04:45:57.665Z,18.23
2019-06-26T04:48:19.273Z,17.27
2019-06-26T04:50:51.260Z,17.53
2019-06-26T04:53:23.150Z,17.33
2019-06-26T04:55:55.179Z,17.43
2019-06-26T04:58:26.858Z,18.63
2019-06-26T05:00:58.781Z,18.17
2019-06-26T05:03:30.756Z,17.70
2019-06-26T05:06:02.382Z,17.90
2019-06-26T05:08:34.710Z,18.63
2019-06-26T05:11:06.426Z,16.60
2019-06-26T05:13:38.127Z,18.90
2019-06-26T05:16:14.914Z,18.27
2019-06-26T05:18:43.484Z,17.23
2019-06-26T05:21:15.192Z,18.10
2019-06-26T05:23:47.185Z,18.13
2019-06-26T05:26:18.824Z,18.83
2019-06-26T05:28:50.442Z,20.80
2019-06-26T05:31:22.560Z,18.00
2019-06-26T05:33:54.525Z,18.77
2019-06-26T05:36:26.372Z,18.67
2019-06-26T05:38:58.107Z,18.67
2019-06-26T05:41:30.011Z,18.80
2019-06-26T05:44:02.036Z,21.33
2019-06-26T05:46:34.578Z,19.37
2019-06-26T05:49:06.517Z,18.67
2019-06-26T05:51:38.523Z,18.80
2019-06-26T05:54:10.267Z,21.03
2019-06-26T05:56:45.153Z,19.33
2019-06-26T05:59:16.159Z,22.97
2019-06-26T06:01:47.906Z,21.20
2019-06-26T06:04:19.623Z,20.13
2019-06-26T06:06:51.990Z,18.03
2019-06-26T06:09:24.206Z,24.93
2019-06-26T06:11:56.337Z,21.30
2019-06-26T06:14:28.143Z,20.57
2019-06-26T06:17:00.030Z,19.63
2019-06-26T06:19:31.919Z,19.53
2019-06-26T06:22:03.941Z,18.00
2019-06-26T06:24:35.786Z,18.03
2019-06-26T06:27:07.562Z,18.00
2019-06-26T06:29:39.446Z,20.33
2019-06-26T06:32:11.440Z,18.77
2019-06-26T06:34:43.386Z,19.37
2019-06-26T06:37:15.236Z,17.97
2019-06-26T06:39:47.190Z,18.33
2019-06-26T06:42:19.463Z,18.00
2019-06-26T06:44:51.462Z,17.13
2019-06-26T06:47:23.583Z,17.03
2019-06-26T06:49:55.768Z,20.43
2019-06-26T06:52:28.058Z,19.07
2019-06-26T06:54:59.980Z,16.80
2019-06-26T06:57:31.742Z,19.67
2019-06-26T07:00:04.571Z,17.00
2019-06-26T07:02:36.486Z,16.03
2019-06-26T07:05:08.630Z,15.83
2019-06-26T07:07:40.473Z,15.13
2019-06-26T07:10:12.781Z,16.20
2019-06-26T07:12:45.073Z,15.90
2019-06-26T07:15:18.311Z,17.60
2019-06-26T07:17:50.146Z,14.47
2019-06-26T07:20:23.388Z,14.97
2019-06-26T07:22:55.216Z,16.47
2019-06-26T07:25:27.233Z,16.03
2019-06-26T07:28:01.782Z,14.53
2019-06-26T07:30:33.364Z,13.90
2019-06-26T07:33:05.547Z,15.30
2019-06-26T07:35:37.300Z,13.07
2019-06-26T07:38:09.060Z,13.03
2019-06-26T07:40:40.971Z,12.73
2019-06-26T07:43:16.342Z,12.07
2019-06-26T07:45:47.029Z,13.10
2019-06-26T07:48:18.850Z,12.27
2019-06-26T07:50:50.687Z,12.40
2019-06-26T07:53:22.515Z,12.73
2019-06-26T07:55:54.378Z,13.90
2019-06-26T07:58:26.525Z,13.10
2019-06-26T08:00:58.353Z,14.57
2019-06-26T08:03:30.532Z,13.43
2019-06-26T08:06:02.379Z,13.33
2019-06-26T08:08:34.530Z,12.70
2019-06-26T08:11:06.758Z,13.30
2019-06-26T08:13:38.973Z,12.33
2019-06-26T08:16:11.049Z,11.67
2019-06-26T08:18:42.840Z,12.97
2019-06-26T08:21:14.791Z,12.00
2019-06-26T08:23:46.812Z,11.50
2019-06-26T08:26:18.576Z,11.90
2019-06-26T08:28:50.424Z,12.70
2019-06-26T08:31:22.445Z,11.67
2019-06-26T08:33:54.467Z,10.73
2019-06-26T08:36:26.567Z,11.90
2019-06-26T08:39:00.687Z,13.03
2019-06-26T08:41:32.614Z,11.47
2019-06-26T08:44:04.823Z,12.37
2019-06-26T08:46:36.709Z,11.90
2019-06-26T08:49:24.470Z,10.80
2019-06-26T08:51:42.555Z,11.93
2019-06-26T08:54:14.897Z,13.33
2019-06-26T08:56:46.868Z,12.63
2019-06-26T08:59:18.793Z,11.70
2019-06-26T09:01:50.916Z,11.90
2019-06-26T09:04:23.155Z,11.97
2019-06-26T09:06:55.451Z,10.73
2019-06-26T09:09:27.458Z,14.13
2019-06-26T09:11:59.502Z,12.60
2019-06-26T09:14:31.338Z,11.03
2019-06-26T09:17:03.814Z,10.43
2019-06-26T09:19:36.230Z,12.47
2019-06-26T09:22:08.814Z,10.27
2019-06-26T09:24:41.811Z,10.37
2019-06-26T09:27:14.997Z,10.43
2019-06-26T09:29:47.885Z,9.43
2019-06-26T09:32:21.742Z,11.27
2019-06-26T09:34:53.598Z,10.90
2019-06-26T09:37:25.636Z,11.18
2019-06-26T09:39:58.317Z,9.98
2019-06-26T09:42:30.780Z,10.15
2019-06-26T09:45:03.185Z,11.20
2019-06-26T09:47:40.317Z,9.78
2019-06-26T09:50:13.286Z,10.47
2019-06-26T09:52:45.464Z,9.67
2019-06-26T09:55:18.446Z,10.03
2019-06-26T09:57:50.622Z,10.63
2019-06-26T10:00:24.113Z,9.78
2019-06-26T10:02:55.912Z,10.70
2019-06-26T10:05:27.696Z,10.25
2019-06-26T10:07:59.579Z,13.78
2019-06-26T10:10:31.566Z,10.43
2019-06-26T10:13:03.594Z,9.75
2019-06-26T10:15:35.776Z,10.72
2019-06-26T10:18:07.683Z,10.80
2019-06-26T10:20:40.172Z,9.68
2019-06-26T10:23:12.594Z,9.65
2019-06-26T10:25:44.418Z,10.18
2019-06-26T10:28:16.484Z,9.48
2019-06-26T10:30:48.333Z,10.05
2019-06-26T10:33:21.215Z,9.30
2019-06-26T10:35:53.394Z,10.20
2019-06-26T10:38:25.757Z,10.18
2019-06-26T10:40:57.854Z,9.78
2019-06-26T10:43:33.214Z,9.63
2019-06-26T10:46:05.519Z,9.93
2019-06-26T10:48:38.719Z,11.50
2019-06-26T10:51:10.670Z,9.83
2019-06-26T10:53:43.701Z,11.90
2019-06-26T10:56:18.561Z,11.08
2019-06-26T10:58:50.628Z,10.38
2019-06-26T11:01:23.526Z,14.65
2019-06-26T11:03:56.036Z,10.68
2019-06-26T11:06:30.577Z,9.30
2019-06-26T11:09:05.135Z,10.35
2019-06-26T11:11:37.132Z,10.30
2019-06-26T11:14:10.110Z,10.05
2019-06-26T11:16:42.764Z,9.68
2019-06-26T11:19:15.630Z,9.65
2019-06-26T11:21:48.202Z,9.88
2019-06-26T11:24:22.533Z,10.85
2019-06-26T11:26:55.279Z,8.25
2019-06-26T11:29:28.555Z,11.12
2019-06-26T11:32:00.537Z,9.58
2019-06-26T11:34:32.638Z,10.00
2019-06-26T11:37:04.985Z,18.95
2019-06-26T11:39:48.162Z,9.43
2019-06-26T11:42:31.812Z,9.63
2019-06-26T11:45:03.792Z,9.50
2019-06-26T11:47:36.342Z,9.73
2019-06-26T11:50:09.918Z,11.38
2019-06-26T11:52:42.402Z,8.85
2019-06-26T11:55:17.183Z,9.25
2019-06-26T11:57:49.863Z,8.45
2019-06-26T12:00:23.608Z,8.75
2019-06-26T12:02:56.326Z,12.50
2019-06-26T12:05:29.796Z,14.95
2019-06-26T12:08:02.125Z,10.15
2019-06-26T12:10:35.156Z,10.45
2019-06-26T12:13:07.767Z,9.18
2019-06-26T12:15:40.429Z,10.40
2019-06-26T12:18:12.601Z,9.30
2019-06-26T12:20:45.540Z,11.35
2019-06-26T12:23:17.759Z,10.40
2019-06-26T12:25:50.733Z,10.65
2019-06-26T12:28:23.309Z,11.15
2019-06-26T12:30:56.043Z,8.98
2019-06-26T12:33:28.526Z,10.18
2019-06-26T12:36:00.919Z,11.63
2019-06-26T12:38:33.311Z,9.45
2019-06-26T12:41:06.698Z,13.00
2019-06-26T12:43:39.187Z,8.70
2019-06-26T12:46:11.837Z,10.10
2019-06-26T12:48:44.248Z,9.20
2019-06-26T12:51:16.761Z,9.95
2019-06-26T12:53:49.010Z,11.53
2019-06-26T12:56:21.370Z,9.85
2019-06-26T12:58:53.830Z,9.78
2019-06-26T13:01:27.604Z,10.13
2019-06-26T13:03:59.786Z,9.65
2019-06-26T13:06:32.273Z,10.70
2019-06-26T13:09:06.302Z,10.10
2019-06-26T13:11:38.820Z,10.50
2019-06-26T13:14:11.156Z,9.88
2019-06-26T13:16:43.570Z,10.38
2019-06-26T13:19:15.760Z,9.65
2019-06-26T13:21:48.959Z,9.50
2019-06-26T13:24:21.235Z,10.88
2019-06-26T13:26:54.661Z,10.45
2019-06-26T13:29:27.329Z,9.20
2019-06-26T13:31:59.784Z,11.73
2019-06-26T13:34:32.263Z,10.60
2019-06-26T13:37:07.359Z,10.30
2019-06-26T13:39:39.030Z,10.72
2019-06-26T13:42:12.582Z,10.72
2019-06-26T13:44:44.780Z,10.18
2019-06-26T13:47:17.158Z,11.95
2019-06-26T13:49:49.225Z,10.48
2019-06-26T13:52:21.567Z,11.53
2019-06-26T13:54:57.110Z,10.50
2019-06-26T13:57:28.159Z,11.70
2019-06-26T14:00:00.175Z,15.00
2019-06-26T14:02:33.012Z,13.08
2019-06-26T14:05:05.591Z,12.03
2019-06-26T14:07:37.991Z,10.95
2019-06-26T14:10:10.394Z,11.68
2019-06-26T14:12:43.048Z,11.33
2019-06-26T14:15:16.843Z,10.55
2019-06-26T14:17:49.735Z,10.70
2019-06-26T14:20:23.197Z,9.80
2019-06-26T14:22:55.294Z,11.40
2019-06-26T14:25:28.165Z,10.55
2019-06-26T14:28:02.555Z,11.15
2019-06-26T14:30:35.660Z,12.80
2019-06-26T14:33:07.882Z,11.30
2019-06-26T14:35:40.276Z,11.20
2019-06-26T14:38:12.434Z,11.25
2019-06-26T14:40:45.626Z,10.60
2019-06-26T14:43:17.924Z,11.53
2019-06-26T14:45:50.275Z,10.00
2019-06-26T14:48:22.384Z,9.88
2019-06-26T14:50:55.924Z,11.05
2019-06-26T14:53:28.393Z,10.60
2019-06-26T14:56:01.349Z,10.58
2019-06-26T14:58:36.374Z,9.73
2019-06-26T15:01:08.500Z,10.13
2019-06-26T15:03:40.640Z,13.48
2019-06-26T15:06:17.036Z,9.95
2019-06-26T15:08:47.445Z,9.20
2019-06-26T15:11:19.739Z,9.18
2019-06-26T15:13:51.644Z,13.13
2019-06-26T15:16:24.091Z,12.80
2019-06-26T15:18:56.256Z,13.75
2019-06-26T15:21:28.922Z,12.90
2019-06-26T15:24:01.884Z,11.78
2019-06-26T15:26:34.626Z,9.18
2019-06-26T15:29:07.545Z,9.30
2019-06-26T15:31:40.561Z,12.10
2019-06-26T15:34:12.880Z,9.50
2019-06-26T15:36:45.247Z,10.08
2019-06-26T15:39:17.332Z,14.33
2019-06-26T15:41:50.093Z,9.38
2019-06-26T15:44:22.437Z,9.03
2019-06-26T15:46:54.581Z,9.25
2019-06-26T15:49:26.844Z,11.12
2019-06-26T15:52:14.143Z,9.98
2019-06-26T15:54:34.597Z,10.53
2019-06-26T15:57:07.216Z,9.05
2019-06-26T15:59:39.718Z,10.40
2019-06-26T16:02:12.354Z,23.87
2019-06-26T16:04:45.346Z,10.15
2019-06-26T16:07:18.617Z,8.60
2019-06-26T16:09:50.717Z,8.90
2019-06-26T16:12:23.395Z,8.40
2019-06-26T16:14:55.621Z,10.23
2019-06-26T16:17:39.200Z,7.67
2019-06-26T16:20:12.988Z,11.22
2019-06-26T16:22:45.690Z,9.90
2019-06-26T16:25:18.042Z,8.00
2019-06-26T16:28:04.351Z,8.15
2019-06-26T16:30:24.363Z,9.75
2019-06-26T16:32:57.305Z,8.25
2019-06-26T16:35:29.333Z,9.40
2019-06-26T16:38:01.711Z,7.25
2019-06-26T16:40:33.911Z,10.13
2019-06-26T16:43:06.688Z,8.73
2019-06-26T16:45:39.426Z,7.90
2019-06-26T16:48:12.188Z,7.37
2019-06-26T16:50:44.679Z,12.80
2019-06-26T16:53:16.935Z,7.35
2019-06-26T16:55:49.982Z,8.85
2019-06-26T16:58:22.670Z,7.53
2019-06-26T17:00:54.813Z,9.88
2019-06-26T17:03:28.046Z,8.08
2019-06-26T17:06:00.135Z,9.25
2019-06-26T17:08:32.345Z,8.23
2019-06-26T17:11:04.895Z,6.83
2019-06-26T17:13:37.004Z,8.10
2019-06-26T17:16:09.204Z,7.10
2019-06-26T17:18:41.507Z,8.25
2019-06-26T17:21:13.842Z,6.37
2019-06-26T17:23:46.297Z,8.80
2019-06-26T17:26:18.320Z,6.63
2019-06-26T17:28:51.839Z,8.48
2019-06-26T17:31:24.705Z,7.00
2019-06-26T17:33:56.795Z,6.58
2019-06-26T17:36:29.274Z,10.35
2019-06-26T17:39:01.568Z,8.78
2019-06-26T17:41:33.808Z,6.27
2019-06-26T17:44:07.952Z,5.73
2019-06-26T17:46:40.799Z,5.30
2019-06-26T17:49:13.409Z,5.67
2019-06-26T17:51:45.408Z,4.97
2019-06-26T17:54:17.905Z,6.33
2019-06-26T17:56:50.275Z,5.33
2019-06-26T17:59:24.717Z,6.77
2019-06-26T18:01:56.677Z,5.73
2019-06-26T18:04:29.975Z,4.73
2019-06-26T18:07:02.541Z,4.80
2019-06-26T18:09:36.146Z,4.47
2019-06-26T18:12:08.579Z,5.90
2019-06-26T18:14:43.307Z,8.10
2019-06-26T18:17:22.066Z,6.57
2019-06-26T18:19:53.009Z,7.40
2019-06-26T18:22:24.637Z,5.00
2019-06-26T18:24:57.118Z,4.40
2019-06-26T18:27:29.295Z,15.93
2019-06-26T18:30:01.991Z,6.40
2019-06-26T18:32:34.592Z,5.03
2019-06-26T18:35:07.176Z,4.73
2019-06-26T18:37:41.864Z,5.73
2019-06-26T18:40:14.486Z,6.60
2019-06-26T18:42:47.917Z,13.67
2019-06-26T18:45:20.760Z,6.77
2019-06-26T18:47:53.016Z,5.57
2019-06-26T18:50:25.973Z,5.43
2019-06-26T18:53:00.212Z,6.67
2019-06-26T18:55:33.855Z,4.97
2019-06-26T18:58:06.500Z,5.53
2019-06-26T19:00:39.068Z,6.00
2019-06-26T19:03:11.392Z,6.07
2019-06-26T19:05:43.503Z,6.30
2019-06-26T19:08:15.673Z,5.73
2019-06-26T19:10:48.235Z,6.00
2019-06-26T19:13:21.201Z,7.33
2019-06-26T19:15:54.166Z,9.97
2019-06-26T19:18:26.337Z,7.47
2019-06-26T19:20:58.531Z,7.10
2019-06-26T19:23:30.607Z,7.60
2019-06-26T19:26:03.002Z,7.83
2019-06-26T19:28:35.041Z,8.23
2019-06-26T19:31:08.521Z,6.37
2019-06-26T19:33:40.710Z,8.00
2019-06-26T19:36:13.270Z,7.90
2019-06-26T19:38:45.557Z,7.83
2019-06-26T19:41:17.826Z,6.77
2019-06-26T19:43:49.893Z,6.37
2019-06-26T19:46:24.956Z,16.67
2019-06-26T19:48:57.752Z,7.23
2019-06-26T19:51:30.977Z,7.60
2019-06-26T19:54:03.434Z,6.80
2019-06-26T19:56:35.893Z,7.07
2019-06-26T19:59:09.049Z,7.70
2019-06-26T20:01:41.537Z,8.83
2019-06-26T20:04:13.602Z,8.63
2019-06-26T20:06:46.009Z,6.33
2019-06-26T20:09:18.215Z,8.53
2019-06-26T20:11:50.197Z,5.77
2019-06-26T20:14:23.094Z,8.00
2019-06-26T20:16:55.950Z,11.63
2019-06-26T20:19:28.388Z,5.47
2019-06-26T20:22:01.122Z,5.67
2019-06-26T20:24:44.245Z,6.67
2019-06-26T20:27:09.475Z,5.80
2019-06-26T20:29:41.763Z,6.40
2019-06-26T20:32:15.414Z,5.90
2019-06-26T20:34:47.926Z,7.43
2019-06-26T20:37:20.771Z,7.00
2019-06-26T20:39:54.247Z,6.40
2019-06-26T20:42:26.794Z,7.10
2019-06-26T20:44:59.177Z,8.10
2019-06-26T20:47:32.324Z,7.20
2019-06-26T20:50:05.500Z,8.23
2019-06-26T20:52:38.092Z,8.27
2019-06-26T20:55:10.447Z,9.40
2019-06-26T20:57:42.754Z,8.30
2019-06-26T21:00:15.093Z,7.73
2019-06-26T21:02:47.373Z,6.07
2019-06-26T21:05:19.352Z,5.73
2019-06-26T21:07:53.402Z,7.07
2019-06-26T21:10:26.186Z,8.83
2019-06-26T21:12:59.504Z,10.33
2019-06-26T21:15:32.146Z,5.60
2019-06-26T21:18:05.249Z,7.90
2019-06-26T21:20:37.617Z,8.80
2019-06-26T21:23:18.397Z,7.63
2019-06-26T21:25:44.833Z,8.50
2019-06-26T21:28:17.366Z,8.70
2019-06-26T21:30:50.723Z,8.13
2019-06-26T21:33:23.206Z,5.87
2019-06-26T21:36:05.298Z,8.87
2019-06-26T21:38:37.995Z,7.37
2019-06-26T21:41:10.673Z,5.70
2019-06-26T21:43:43.043Z,7.10
2019-06-26T21:46:15.330Z,9.83
2019-06-26T21:48:48.171Z,5.80
2019-06-26T21:51:20.163Z,5.17
2019-06-26T21:53:53.089Z,4.70
2019-06-26T21:56:25.559Z,5.27
2019-06-26T21:58:57.763Z,6.27
2019-06-26T22:01:30.107Z,4.97
2019-06-26T22:04:02.666Z,4.37
2019-06-26T22:06:35.548Z,3.70
2019-06-26T22:09:08.398Z,3.13
2019-06-26T22:11:41.335Z,5.87
2019-06-26T22:14:12.965Z,5.93
2019-06-26T22:16:44.989Z,3.87
2019-06-26T22:19:17.266Z,3.97
2019-06-26T22:21:50.607Z,5.73
2019-06-26T22:24:22.722Z,5.57
2019-06-26T22:26:56.348Z,5.63
2019-06-26T22:29:28.454Z,4.17
2019-06-26T22:32:01.485Z,6.53
2019-06-26T22:34:33.405Z,4.37
2019-06-26T22:37:06.787Z,4.60
2019-06-26T22:39:39.331Z,4.63
2019-06-26T22:42:11.837Z,6.47
2019-06-26T22:44:44.058Z,4.63
2019-06-26T22:47:16.773Z,3.93
2019-06-26T22:49:49.324Z,7.30
2019-06-26T22:52:22.024Z,4.33
2019-06-26T22:54:53.751Z,5.33
2019-06-26T22:57:25.565Z,7.03
2019-06-26T22:59:57.580Z,6.33
2019-06-26T23:02:29.264Z,4.47
2019-06-26T23:05:01.182Z,6.23
2019-06-26T23:07:39.720Z,5.13
2019-06-26T23:10:20.775Z,6.07
2019-06-26T23:12:56.491Z,7.20
2019-06-26T23:15:28.684Z,7.63
2019-06-26T23:18:00.341Z,9.43
2019-06-26T23:20:32.321Z,7.00
2019-06-26T23:23:03.977Z,9.13
2019-06-26T23:25:36.177Z,7.93
2019-06-26T23:28:07.992Z,7.43
2019-06-26T23:30:41.011Z,5.77
2019-06-26T23:33:13.532Z,5.73
2019-06-26T23:35:47.041Z,8.03
2019-06-26T23:38:19.139Z,6.50
2019-06-26T23:40:51.426Z,5.63
2019-06-26T23:43:23.479Z,6.67
2019-06-26T23:45:55.372Z,4.83
2019-06-26T23:48:27.232Z,7.40
2019-06-26T23:50:59.373Z,9.50
2019-06-26T23:53:31.313Z,8.90
2019-06-26T23:56:03.049Z,7.87
2019-06-26T23:58:35.168Z,9.90
